Terminal Aerodrome Forecast
Issued by NWS

Home | Current Version | Previous Version | Text Only | Print | Product List | Glossary On
Versions: 1 2 3 4 5 6 7 8 9 10 11 12 13 14 15 16 17 18 19 20 21 22 23
000
FTUS44 KEWX 171745
TAFSSF
TAF
KSSF 171745Z 1718/1818 19015KT P6SM SCT035
     FM180700 17010KT 6SM BR OVC012
     FM181100 20009KT 2SM BR OVC007
     FM181200 21006KT 1SM BR OVC003
     FM181400 25007KT 4SM BR OVC007=

USA.gov is the U.S. government's official web portal to all federal, state and local government web resources and services.